Comandante Gustavo Kraemer Airport

SBBG · Rio Grande do Sul, 巴西

罗盘
风向 的 风向 的 风向 到 风向 340° Comandante Gustavo Kraemer Airport 6/24
风: 8 kt, 3 beaufort

3 kt

7 kt
改变
0 ft 1.000 2.000 3.000 4.000 5.000
CAVOK
METAR SBBG 021500Z AUTO 34008KT 290V020 CAVOK 32/22 Q1012

METAR Comandante Gustavo Kraemer Airport - SBBG/BGX

Comandante Gustavo Kraemer Airport是,巴西中的中型机场。 该机场位于纬度-31,39045和经度-54,11210。 该机场有2条跑道: 6/24 和 14/32. 本场的ICAO机场代码为SBBG。 该机场的IATA代码为BGX。 机场在Curitiba FIR中。

该航空气象观测是针对Comandante Gustavo Kraemer Airport在2024年3月2日 12:00, 当地时间进行的。

机场观察

风向为340°,速度为8 kt。 风向在290°和020°之间变化。

天气为CAVOK。这意味着在5.000 ft或MSA(最低安全高度)以下(以较高者为准)以下没有云。这也意味着没有观测到积雨云或高耸的积云,可见度为10 km 或者更多或更高。此外,不会有雾,降雨或其他重要天气。

温度和风寒是32 °C。 热指数为36。 露点为22 °C,相对湿度为55%。 海平面上的气压为1012 hPa (QNH)。

白天

今天,太阳从06:27升起,在19:09降落。 这适用于Comandante Gustavo Kraemer Airport,世界夏令时可能有所不同。 当地时间与世界标准时间之间的时差为-3 小时。 当前,没有夏令时有效。

公司介绍

我们没有关于这个机场的公司信息。

体会

到Vliegles.nl去找飞行课程,跳伞和其他飞行体验。 浏览页面,了解Comandante Gustavo Kraemer Airport附近所有可用的活动。 你也可以使用搜索功能来寻找你所在地附近的特定飞行课程、跳伞或其他飞行体验。

跑道

Id 标题 侧风 逆风 侧风 %
6/24 046°-226° 7 kt 3 kt 91 %
14/32 226°-046° 7 kt 3 kt 91 %

逆风成分最大的方向会被突出显示,并用于横风计算。 这并不一定意味着这个方向在使用。

温度 & 天气

温度 32 °C
露点 22 °C
相对湿度 55%
热度指数 36 °C
Kp-index 0 (0-9)

白天

日出
06:27
中午
12:48
日落
19:09 (6:10)

小工具

你想在你的网站上有一个关于Comandante Gustavo Kraemer Airport的当前航空天气(METAR)的小部件吗?

显示HTML代码
?>